createdAt,value
2019-05-17T00:02:17.534Z,7.87
2019-05-17T00:04:47.105Z,7.60
2019-05-17T00:07:16.868Z,7.60
2019-05-17T00:09:47.858Z,7.37
2019-05-17T00:12:17.675Z,7.67
2019-05-17T00:14:47.341Z,7.33
2019-05-17T00:17:17.361Z,7.30
2019-05-17T00:19:47.131Z,7.23
2019-05-17T00:22:16.861Z,7.63
2019-05-17T00:24:47.700Z,7.20
2019-05-17T00:27:17.414Z,7.47
2019-05-17T00:29:47.053Z,8.10
2019-05-17T00:32:17.114Z,7.93
2019-05-17T00:34:47.138Z,7.40
2019-05-17T00:37:17.426Z,8.17
2019-05-17T00:39:47.240Z,8.00
2019-05-17T00:42:17.138Z,8.67
2019-05-17T00:44:47.353Z,8.23
2019-05-17T00:47:17.272Z,8.60
2019-05-17T00:49:46.864Z,7.87
2019-05-17T00:52:16.785Z,8.33
2019-05-17T00:54:46.910Z,8.07
2019-05-17T00:57:16.794Z,8.90
2019-05-17T00:59:47.582Z,7.60
2019-05-17T01:02:17.337Z,7.80
2019-05-17T01:04:47.564Z,7.43
2019-05-17T01:07:17.824Z,7.80
2019-05-17T01:09:47.442Z,7.97
2019-05-17T01:12:16.857Z,8.70
2019-05-17T01:14:46.687Z,7.43
2019-05-17T01:17:16.649Z,7.53
2019-05-17T01:19:47.218Z,8.13
2019-05-17T01:22:16.983Z,7.87
2019-05-17T01:24:46.476Z,8.13
2019-05-17T01:27:17.276Z,8.23
2019-05-17T01:29:46.867Z,7.47
2019-05-17T01:32:17.270Z,8.37
2019-05-17T01:34:47.100Z,9.10
2019-05-17T01:37:17.141Z,7.87
2019-05-17T01:39:47.252Z,8.10
2019-05-17T01:42:17.174Z,8.23
2019-05-17T01:44:47.392Z,8.27
2019-05-17T01:47:16.840Z,8.77
2019-05-17T01:49:47.068Z,8.17
2019-05-17T01:52:16.858Z,8.33
2019-05-17T01:54:47.060Z,8.57
2019-05-17T01:57:16.924Z,8.90
2019-05-17T01:59:46.800Z,8.90
2019-05-17T02:02:18.617Z,9.17
2019-05-17T02:04:49.769Z,8.07
2019-05-17T02:07:19.183Z,9.20
2019-05-17T02:09:48.620Z,10.17
2019-05-17T02:12:18.045Z,9.03
2019-05-17T02:14:48.034Z,8.87
2019-05-17T02:17:17.563Z,9.87
2019-05-17T02:19:46.967Z,9.10
2019-05-17T02:22:16.845Z,9.60
2019-05-17T02:24:46.554Z,8.70
2019-05-17T02:27:16.068Z,9.60
2019-05-17T02:29:45.619Z,8.97
2019-05-17T02:32:15.499Z,9.57
2019-05-17T02:34:44.933Z,10.57
2019-05-17T02:37:14.363Z,10.27
2019-05-17T02:39:58.327Z,9.87
2019-05-17T02:42:15.013Z,9.40
2019-05-17T02:44:44.944Z,10.13
2019-05-17T02:47:14.427Z,9.83
2019-05-17T02:49:43.860Z,9.67
2019-05-17T02:52:13.362Z,9.67
2019-05-17T02:54:43.696Z,10.10
2019-05-17T02:57:14.138Z,10.97
2019-05-17T02:59:43.948Z,10.80
2019-05-17T03:02:13.464Z,10.60
2019-05-17T03:04:43.412Z,10.80
2019-05-17T03:07:13.737Z,11.43
2019-05-17T03:09:43.423Z,11.67
2019-05-17T03:12:13.115Z,10.83
2019-05-17T03:14:43.319Z,11.03
2019-05-17T03:17:14.084Z,11.50
2019-05-17T03:19:43.832Z,12.20
2019-05-17T03:22:13.537Z,12.03
2019-05-17T03:24:43.868Z,12.63
2019-05-17T03:27:13.841Z,12.83
2019-05-17T03:29:43.483Z,13.43
2019-05-17T03:32:17.062Z,14.30
2019-05-17T03:34:56.301Z,14.15
2019-05-17T03:37:31.935Z,15.67
2019-05-17T03:39:56.983Z,16.23
2019-05-17T03:42:26.479Z,16.07
2019-05-17T03:44:55.968Z,15.43
2019-05-17T03:47:25.436Z,15.57
2019-05-17T03:49:54.857Z,16.17
2019-05-17T03:52:24.353Z,16.17
2019-05-17T03:54:53.778Z,15.90
2019-05-17T03:57:24.137Z,16.47
2019-05-17T03:59:53.786Z,15.83
2019-05-17T04:02:23.349Z,16.47
2019-05-17T04:04:53.234Z,17.57
2019-05-17T04:07:23.641Z,17.43
2019-05-17T04:09:53.577Z,17.23
2019-05-17T04:12:23.472Z,16.63
2019-05-17T04:14:53.598Z,16.33
2019-05-17T04:17:23.245Z,16.80
2019-05-17T04:19:53.438Z,18.40
2019-05-17T04:22:23.906Z,16.57
2019-05-17T04:24:53.515Z,17.20
2019-05-17T04:27:23.193Z,17.13
2019-05-17T04:29:53.454Z,16.77
2019-05-17T04:32:23.507Z,17.77
2019-05-17T04:34:53.082Z,17.03
2019-05-17T04:37:23.007Z,17.20
2019-05-17T04:39:52.778Z,17.30
2019-05-17T04:42:22.820Z,18.53
2019-05-17T04:44:52.824Z,17.73
2019-05-17T04:47:23.140Z,18.63
2019-05-17T04:49:53.880Z,17.73
2019-05-17T04:52:23.479Z,17.67
2019-05-17T04:54:53.930Z,17.03
2019-05-17T04:57:23.484Z,18.37
2019-05-17T04:59:52.991Z,17.27
2019-05-17T05:02:23.554Z,19.23
2019-05-17T05:04:53.571Z,19.27
2019-05-17T05:07:23.198Z,19.90
2019-05-17T05:09:52.924Z,19.93
2019-05-17T05:12:22.955Z,19.47
2019-05-17T05:14:52.495Z,21.10
2019-05-17T05:17:22.244Z,22.40
2019-05-17T05:19:53.060Z,22.17
2019-05-17T05:22:22.713Z,23.07
2019-05-17T05:24:52.554Z,23.70
2019-05-17T05:27:22.345Z,24.00
2019-05-17T05:29:52.220Z,24.37
2019-05-17T05:32:22.101Z,24.47
2019-05-17T05:34:52.023Z,24.70
2019-05-17T05:37:23.196Z,25.67
2019-05-17T05:39:54.587Z,26.37
2019-05-17T05:42:24.048Z,24.20
2019-05-17T05:44:55.459Z,24.33
2019-05-17T05:47:24.645Z,25.33
2019-05-17T05:49:54.061Z,25.90
2019-05-17T05:52:23.489Z,28.70
2019-05-17T05:54:52.932Z,26.43
2019-05-17T05:57:22.345Z,27.47
2019-05-17T05:59:52.126Z,28.13
2019-05-17T06:02:21.873Z,28.43
2019-05-17T06:04:51.813Z,28.57
2019-05-17T06:07:21.765Z,28.97
2019-05-17T06:09:51.903Z,30.30
2019-05-17T06:12:27.594Z,30.30
2019-05-17T06:14:52.599Z,30.07
2019-05-17T06:17:22.329Z,32.60
2019-05-17T06:19:52.165Z,30.53
2019-05-17T06:22:22.357Z,31.17
2019-05-17T06:24:52.171Z,29.90
2019-05-17T06:27:21.648Z,32.03
2019-05-17T06:29:51.624Z,32.53
2019-05-17T06:32:22.705Z,31.57
2019-05-17T06:34:52.280Z,31.73
2019-05-17T06:37:22.352Z,31.93
2019-05-17T06:39:52.674Z,32.10
2019-05-17T06:42:36.982Z,31.73
2019-05-17T06:44:53.520Z,32.87
2019-05-17T06:47:23.317Z,33.03
2019-05-17T06:49:53.475Z,33.63
2019-05-17T06:52:23.270Z,32.70
2019-05-17T06:54:52.717Z,35.27
2019-05-17T06:57:23.327Z,34.37
2019-05-17T06:59:56.271Z,32.27
2019-05-17T07:02:25.694Z,34.33
2019-05-17T07:04:56.770Z,33.80
2019-05-17T07:07:30.438Z,34.03
2019-05-17T07:10:00.883Z,32.00
2019-05-17T07:12:30.887Z,34.20
2019-05-17T07:15:01.676Z,31.57
2019-05-17T07:17:31.872Z,31.50
2019-05-17T07:20:01.345Z,30.53
2019-05-17T07:22:30.814Z,29.57
2019-05-17T07:25:00.259Z,30.63
2019-05-17T07:27:41.002Z,29.60
2019-05-17T07:30:00.828Z,30.83
2019-05-17T07:32:30.266Z,31.27
2019-05-17T07:35:00.172Z,29.90
2019-05-17T07:37:30.345Z,29.37
2019-05-17T07:40:04.763Z,28.33
2019-05-17T07:42:31.299Z,28.60
2019-05-17T07:45:00.778Z,27.73
2019-05-17T07:47:30.306Z,29.47
2019-05-17T07:50:00.970Z,28.07
2019-05-17T07:52:30.924Z,28.17
2019-05-17T07:55:02.375Z,28.57
2019-05-17T07:57:31.519Z,27.97
2019-05-17T08:00:00.930Z,29.13
2019-05-17T08:02:30.790Z,31.10
2019-05-17T08:05:00.776Z,30.20
2019-05-17T08:07:30.332Z,30.77
2019-05-17T08:10:00.243Z,30.93
2019-05-17T08:12:30.400Z,31.90
2019-05-17T08:15:00.381Z,31.63
2019-05-17T08:17:30.423Z,30.90
2019-05-17T08:20:00.856Z,27.83
2019-05-17T08:22:30.498Z,27.73
2019-05-17T08:25:00.254Z,25.50
2019-05-17T08:27:29.975Z,25.87
2019-05-17T08:29:59.964Z,24.07
2019-05-17T08:32:31.640Z,26.67
2019-05-17T08:35:00.808Z,25.93
2019-05-17T08:37:30.440Z,25.17
2019-05-17T08:40:00.413Z,25.40
2019-05-17T08:42:30.098Z,25.63
2019-05-17T08:45:00.304Z,24.23
2019-05-17T08:47:30.289Z,24.27
2019-05-17T08:50:00.486Z,21.73
2019-05-17T08:52:30.241Z,21.73
2019-05-17T08:55:00.343Z,22.07
2019-05-17T08:57:30.399Z,22.50
2019-05-17T09:00:00.723Z,21.63
2019-05-17T09:02:30.721Z,20.53
2019-05-17T09:05:00.727Z,18.20
2019-05-17T09:07:30.310Z,18.30
2019-05-17T09:10:01.819Z,19.47
2019-05-17T09:12:31.139Z,19.50
2019-05-17T09:15:00.713Z,22.17
2019-05-17T09:17:30.167Z,20.73
2019-05-17T09:20:00.642Z,19.43
2019-05-17T09:22:30.821Z,20.50
2019-05-17T09:25:00.603Z,19.83
2019-05-17T09:27:30.217Z,19.30
2019-05-17T09:30:00.182Z,18.77
2019-05-17T09:32:29.816Z,18.57
2019-05-17T09:35:00.319Z,18.40
2019-05-17T09:37:30.478Z,19.43
2019-05-17T09:40:00.114Z,19.40
2019-05-17T09:42:30.142Z,19.20
2019-05-17T09:45:00.301Z,19.47
2019-05-17T09:47:30.337Z,20.10
2019-05-17T09:50:00.503Z,19.67
2019-05-17T09:52:30.420Z,20.57
2019-05-17T09:55:00.638Z,21.70
2019-05-17T09:57:30.368Z,22.40
2019-05-17T10:00:00.301Z,23.30
2019-05-17T10:02:30.063Z,25.57
2019-05-17T10:04:59.940Z,26.83
2019-05-17T10:07:29.964Z,26.93
2019-05-17T10:09:59.865Z,25.87
2019-05-17T10:12:29.533Z,25.87
2019-05-17T10:15:00.473Z,25.73
2019-05-17T10:17:30.200Z,25.30
2019-05-17T10:20:00.078Z,27.27
2019-05-17T10:22:30.558Z,26.97
2019-05-17T10:25:00.522Z,26.30
2019-05-17T10:27:30.454Z,27.47
2019-05-17T10:30:00.256Z,27.30
2019-05-17T10:32:30.962Z,26.33
2019-05-17T10:35:00.651Z,26.20
2019-05-17T10:37:30.427Z,22.07
2019-05-17T10:39:59.973Z,21.93
2019-05-17T10:42:30.591Z,22.23
2019-05-17T10:45:00.328Z,20.77
2019-05-17T10:47:30.203Z,23.07
2019-05-17T10:50:00.011Z,22.40
2019-05-17T10:52:30.091Z,22.50
2019-05-17T10:55:00.023Z,22.00
2019-05-17T10:57:30.326Z,21.97
2019-05-17T10:59:59.964Z,21.10
2019-05-17T11:02:30.459Z,21.83
2019-05-17T11:05:00.934Z,21.23
2019-05-17T11:07:30.534Z,21.17
2019-05-17T11:10:00.649Z,22.53
2019-05-17T11:12:30.361Z,22.60
2019-05-17T11:15:10.573Z,23.67
2019-05-17T11:17:31.125Z,24.27
2019-05-17T11:20:00.541Z,23.57
2019-05-17T11:22:29.977Z,22.80
2019-05-17T11:24:59.402Z,23.53
2019-05-17T11:27:28.842Z,22.80
2019-05-17T11:29:58.279Z,23.10
2019-05-17T11:32:27.711Z,23.60
2019-05-17T11:34:57.171Z,24.53
2019-05-17T11:37:26.602Z,23.53
2019-05-17T11:39:56.016Z,23.70
2019-05-17T11:42:25.737Z,23.67
2019-05-17T11:44:55.143Z,25.43
2019-05-17T11:47:24.591Z,22.77
2019-05-17T11:49:54.081Z,23.80
2019-05-17T11:52:23.506Z,24.60
2019-05-17T11:54:52.931Z,24.53
2019-05-17T11:57:22.358Z,22.90
2019-05-17T11:59:51.798Z,25.00
2019-05-17T12:02:21.676Z,24.90
2019-05-17T12:04:51.273Z,24.57
2019-05-17T12:07:20.699Z,23.50
2019-05-17T12:09:50.118Z,22.27
2019-05-17T12:12:19.615Z,24.03
2019-05-17T12:14:49.041Z,21.83
2019-05-17T12:17:18.477Z,22.30
2019-05-17T12:19:48.219Z,20.50
2019-05-17T12:22:17.681Z,20.10
2019-05-17T12:24:47.101Z,20.33
2019-05-17T12:27:16.544Z,19.87
2019-05-17T12:29:45.993Z,21.23
2019-05-17T12:32:17.061Z,22.67
2019-05-17T12:34:46.806Z,26.63
2019-05-17T12:37:16.512Z,28.27
2019-05-17T12:39:45.939Z,29.43
2019-05-17T12:42:15.441Z,28.50
2019-05-17T12:44:44.877Z,28.97
2019-05-17T12:47:14.662Z,27.97
2019-05-17T12:49:44.175Z,29.30
2019-05-17T12:52:13.590Z,28.87
2019-05-17T12:54:43.044Z,28.47
2019-05-17T12:57:12.823Z,28.53
2019-05-17T12:59:42.327Z,28.33
2019-05-17T13:02:12.516Z,28.67
2019-05-17T13:04:42.233Z,27.17
2019-05-17T13:07:11.681Z,26.80
2019-05-17T13:09:41.109Z,27.60
2019-05-17T13:12:10.865Z,27.40
2019-05-17T13:14:40.334Z,27.67
2019-05-17T13:17:09.756Z,26.50
2019-05-17T13:19:39.209Z,28.27
2019-05-17T13:22:08.769Z,28.13
2019-05-17T13:24:38.210Z,27.70
2019-05-17T13:27:07.641Z,28.17
2019-05-17T13:29:37.093Z,28.50
2019-05-17T13:32:06.508Z,28.40
2019-05-17T13:34:35.933Z,28.17
2019-05-17T13:37:05.439Z,29.17
2019-05-17T13:39:34.866Z,30.57
2019-05-17T13:42:06.347Z,28.30
2019-05-17T13:44:35.783Z,29.03
2019-05-17T13:47:06.975Z,29.00
2019-05-17T13:49:36.419Z,27.87
2019-05-17T13:52:05.977Z,25.70
2019-05-17T13:54:35.419Z,25.63
2019-05-17T13:57:06.564Z,25.10
2019-05-17T13:59:36.280Z,23.90
2019-05-17T14:02:05.698Z,24.77
2019-05-17T14:04:35.271Z,25.23
2019-05-17T14:07:04.787Z,25.73
2019-05-17T14:09:35.943Z,24.10
2019-05-17T14:12:05.423Z,24.33
2019-05-17T14:14:34.866Z,25.00
2019-05-17T14:17:07.821Z,24.17
2019-05-17T14:19:37.276Z,24.03
2019-05-17T14:22:06.763Z,23.07
2019-05-17T14:24:36.208Z,22.60
2019-05-17T14:27:05.705Z,23.07
2019-05-17T14:29:35.136Z,22.60
2019-05-17T14:32:05.287Z,24.23
2019-05-17T14:34:34.777Z,23.40
2019-05-17T14:37:07.515Z,23.73
2019-05-17T14:39:35.540Z,23.27
2019-05-17T14:42:04.963Z,23.57
2019-05-17T14:44:34.408Z,23.00
2019-05-17T14:47:03.912Z,23.20
2019-05-17T14:49:33.370Z,23.80
2019-05-17T14:52:05.663Z,23.30
2019-05-17T14:54:35.165Z,23.80
2019-05-17T14:57:04.964Z,24.50
2019-05-17T14:59:34.459Z,22.77
2019-05-17T15:02:03.967Z,22.80
2019-05-17T15:04:33.419Z,23.67
2019-05-17T15:07:03.143Z,24.23
2019-05-17T15:09:32.587Z,24.30
2019-05-17T15:12:02.056Z,23.60
2019-05-17T15:14:31.479Z,23.00
2019-05-17T15:17:02.284Z,23.40
2019-05-17T15:19:31.793Z,25.30
2019-05-17T15:22:01.220Z,24.63
2019-05-17T15:24:31.262Z,24.53
2019-05-17T15:27:05.590Z,22.83
2019-05-17T15:29:32.006Z,24.10
2019-05-17T15:32:01.739Z,24.17
2019-05-17T15:34:31.161Z,23.27
2019-05-17T15:37:00.585Z,23.87
2019-05-17T15:39:30.279Z,22.80
2019-05-17T15:41:59.782Z,22.97
2019-05-17T15:44:29.312Z,23.47
2019-05-17T15:46:58.725Z,24.40
2019-05-17T15:49:28.197Z,23.03
2019-05-17T15:51:57.625Z,24.33
2019-05-17T15:54:27.123Z,25.07
2019-05-17T15:56:56.818Z,24.80
2019-05-17T15:59:26.276Z,23.67
2019-05-17T16:01:55.744Z,23.13
2019-05-17T16:04:44.854Z,26.40
2019-05-17T16:07:14.305Z,26.50
2019-05-17T16:09:43.731Z,23.57
2019-05-17T16:12:13.148Z,24.43
2019-05-17T16:14:42.714Z,24.97
2019-05-17T16:17:12.176Z,26.47
2019-05-17T16:19:41.625Z,25.97
2019-05-17T16:22:11.058Z,25.17
2019-05-17T16:24:40.550Z,25.00
2019-05-17T16:27:09.987Z,25.23
2019-05-17T16:29:39.506Z,25.93
2019-05-17T16:32:09.022Z,25.47
2019-05-17T16:34:38.447Z,25.37
2019-05-17T16:37:08.160Z,25.63
2019-05-17T16:39:37.622Z,25.43
2019-05-17T16:42:07.091Z,26.23
2019-05-17T16:44:36.638Z,26.43
2019-05-17T16:47:06.218Z,26.63
2019-05-17T16:49:35.743Z,25.77
2019-05-17T16:52:05.324Z,26.17
2019-05-17T16:54:35.094Z,27.13
2019-05-17T16:57:04.891Z,26.40
2019-05-17T16:59:34.302Z,27.87
2019-05-17T17:02:03.982Z,26.33
2019-05-17T17:04:33.419Z,25.17
2019-05-17T17:07:02.911Z,26.77
2019-05-17T17:09:32.505Z,26.00
2019-05-17T17:12:02.082Z,25.30
2019-05-17T17:14:31.595Z,24.73
2019-05-17T17:17:01.091Z,24.70
2019-05-17T17:19:30.594Z,25.73
2019-05-17T17:22:00.101Z,26.27
2019-05-17T17:24:29.522Z,26.40
2019-05-17T17:26:58.994Z,26.10
2019-05-17T17:29:28.476Z,26.60
2019-05-17T17:31:57.902Z,26.80
2019-05-17T17:34:27.495Z,26.13
2019-05-17T17:36:57.005Z,25.53
2019-05-17T17:39:26.466Z,26.83
2019-05-17T17:41:56.084Z,27.37
2019-05-17T17:44:25.519Z,25.87
2019-05-17T17:46:55.305Z,27.37
2019-05-17T17:49:24.734Z,27.80
2019-05-17T17:51:54.385Z,25.60
2019-05-17T17:54:23.809Z,27.07
2019-05-17T17:56:53.263Z,25.80
2019-05-17T17:59:22.684Z,26.70
2019-05-17T18:01:52.132Z,27.03
2019-05-17T18:04:21.625Z,27.93
2019-05-17T18:06:51.129Z,28.27
2019-05-17T18:09:20.585Z,27.70
2019-05-17T18:11:50.087Z,29.20
2019-05-17T18:14:19.521Z,24.47
2019-05-17T18:16:48.963Z,29.60
2019-05-17T18:19:18.489Z,27.50
2019-05-17T18:21:48.078Z,30.13
2019-05-17T18:24:17.635Z,28.40
2019-05-17T18:26:47.058Z,29.53
2019-05-17T18:29:16.500Z,25.70
2019-05-17T18:31:45.992Z,29.93
2019-05-17T18:34:15.593Z,30.57
2019-05-17T18:36:45.097Z,35.03
2019-05-17T18:39:16.207Z,30.20
2019-05-17T18:41:45.629Z,29.47
2019-05-17T18:44:27.241Z,29.47
2019-05-17T18:46:46.233Z,26.60
2019-05-17T18:49:15.656Z,30.37
2019-05-17T18:51:45.090Z,26.63
2019-05-17T18:54:17.239Z,28.57
2019-05-17T18:56:46.650Z,26.63
2019-05-17T18:59:16.073Z,29.00
2019-05-17T19:05:27.360Z,29.60
2019-05-17T19:07:56.784Z,30.00
2019-05-17T19:10:26.360Z,29.83
2019-05-17T19:12:55.794Z,27.50
2019-05-17T19:15:27.621Z,28.17
2019-05-17T19:17:56.581Z,28.77
2019-05-17T19:20:26.008Z,29.50
2019-05-17T19:22:55.587Z,29.80
2019-05-17T19:25:25.017Z,29.50
2019-05-17T19:27:54.446Z,29.93
2019-05-17T19:30:24.042Z,29.40
2019-05-17T19:32:53.546Z,31.47
2019-05-17T19:35:23.086Z,30.40
2019-05-17T19:37:52.729Z,32.20
2019-05-17T19:40:22.419Z,31.43
2019-05-17T19:42:51.996Z,30.93
2019-05-17T19:45:21.662Z,31.37
2019-05-17T19:47:51.294Z,30.43
2019-05-17T19:50:20.903Z,30.63
2019-05-17T19:52:50.381Z,32.37
2019-05-17T19:55:19.952Z,31.97
2019-05-17T19:57:49.488Z,28.80
2019-05-17T20:00:22.377Z,29.57
2019-05-17T20:02:51.871Z,28.33
2019-05-17T20:05:21.327Z,30.53
2019-05-17T20:07:50.758Z,30.60
2019-05-17T20:10:22.459Z,29.60
2019-05-17T20:12:52.457Z,31.33
2019-05-17T20:15:33.675Z,32.77
2019-05-17T20:17:53.515Z,31.10
2019-05-17T20:20:22.990Z,31.33
2019-05-17T20:22:52.456Z,30.77
2019-05-17T20:25:22.875Z,31.70
2019-05-17T20:27:52.363Z,32.07
2019-05-17T20:30:21.936Z,32.80
2019-05-17T20:32:51.527Z,32.83
2019-05-17T20:35:21.274Z,34.10
2019-05-17T20:37:50.675Z,32.07
2019-05-17T20:40:21.872Z,31.37
2019-05-17T20:42:51.303Z,29.90
2019-05-17T20:45:32.747Z,31.37
2019-05-17T20:47:51.968Z,30.07
2019-05-17T20:50:21.540Z,33.13
2019-05-17T20:52:50.973Z,33.03
2019-05-17T20:55:20.580Z,34.27
2019-05-17T20:57:50.011Z,34.63
2019-05-17T21:00:19.859Z,34.57
2019-05-17T21:02:49.633Z,33.37
2019-05-17T21:05:19.672Z,33.23
2019-05-17T21:07:49.460Z,34.53
2019-05-17T21:10:19.624Z,31.93
2019-05-17T21:12:49.137Z,31.90
2019-05-17T21:15:18.768Z,32.60
2019-05-17T21:17:48.212Z,32.90
2019-05-17T21:20:18.183Z,32.17
2019-05-17T21:22:47.774Z,34.73
2019-05-17T21:25:17.335Z,35.40
2019-05-17T21:27:46.757Z,31.90
2019-05-17T21:30:17.114Z,35.90
2019-05-17T21:32:46.526Z,32.90
2019-05-17T21:35:16.179Z,35.07
2019-05-17T21:37:45.612Z,33.07
2019-05-17T21:40:16.137Z,33.67
2019-05-17T21:42:45.587Z,35.33
2019-05-17T21:45:15.348Z,32.77
2019-05-17T21:47:44.786Z,33.33
2019-05-17T21:50:14.286Z,34.47
2019-05-17T21:52:43.801Z,36.00
2019-05-17T21:55:13.378Z,38.40
2019-05-17T21:57:42.800Z,36.93
2019-05-17T22:00:18.925Z,38.57
2019-05-17T22:02:48.349Z,37.63
2019-05-17T22:05:17.767Z,37.77
2019-05-17T22:07:47.214Z,38.00
2019-05-17T22:10:16.774Z,38.57
2019-05-17T22:12:46.300Z,37.77
2019-05-17T22:15:15.787Z,38.00
2019-05-17T22:17:45.211Z,39.00
2019-05-17T22:20:15.084Z,37.33
2019-05-17T22:22:44.567Z,37.80
2019-05-17T22:25:14.078Z,38.13
2019-05-17T22:27:43.504Z,37.53
2019-05-17T22:30:13.671Z,37.53
2019-05-17T22:32:43.194Z,37.53
2019-05-17T22:35:12.685Z,34.73
2019-05-17T22:37:42.118Z,35.13
2019-05-17T22:40:11.892Z,31.93
2019-05-17T22:42:41.366Z,35.77
2019-05-17T22:45:10.973Z,33.67
2019-05-17T22:47:40.390Z,34.43
2019-05-17T22:50:10.072Z,38.03
2019-05-17T22:52:39.499Z,38.50
2019-05-17T22:55:09.846Z,36.80
2019-05-17T22:57:39.585Z,36.50
2019-05-17T23:00:10.718Z,34.47
2019-05-17T23:02:43.628Z,36.50
2019-05-17T23:05:13.200Z,36.70
2019-05-17T23:07:42.652Z,38.90
2019-05-17T23:10:12.200Z,36.77
2019-05-17T23:12:41.632Z,38.57
2019-05-17T23:15:11.410Z,35.73
2019-05-17T23:17:40.829Z,37.83
2019-05-17T23:20:10.772Z,38.43
2019-05-17T23:22:40.205Z,38.97
2019-05-17T23:25:09.756Z,36.00
2019-05-17T23:27:39.528Z,36.17
2019-05-17T23:30:09.967Z,38.37
2019-05-17T23:32:39.757Z,34.63
2019-05-17T23:35:09.521Z,37.77
2019-05-17T23:37:38.980Z,39.00
2019-05-17T23:40:09.338Z,39.83
2019-05-17T23:42:38.740Z,41.17
2019-05-17T23:45:08.838Z,40.93
2019-05-17T23:47:38.267Z,39.57
2019-05-17T23:50:11.249Z,39.23
2019-05-17T23:52:40.678Z,39.13
2019-05-17T23:55:10.402Z,40.53
2019-05-17T23:57:39.839Z,38.30
